createdAt,value
2023-02-24T00:00:08.647Z,69
2023-02-24T00:02:41.679Z,60
2023-02-24T00:05:19.369Z,57
2023-02-24T00:07:56.408Z,62
2023-02-24T00:10:33.783Z,60
2023-02-24T00:13:07.608Z,61
2023-02-24T00:15:44.789Z,58
2023-02-24T00:18:21.564Z,55
2023-02-24T00:20:54.197Z,61
2023-02-24T00:23:28.553Z,61
2023-02-24T00:26:01.235Z,60
2023-02-24T00:28:38.195Z,62
2023-02-24T00:31:15.770Z,56
2023-02-24T00:33:48.286Z,58
2023-02-24T00:36:25.081Z,59
2023-02-24T00:39:02.024Z,58
2023-02-24T00:41:39.058Z,57
2023-02-24T00:44:14.998Z,53
2023-02-24T00:46:47.226Z,59
2023-02-24T00:49:19.886Z,56
2023-02-24T00:51:57.237Z,58
2023-02-24T00:54:34.049Z,58
2023-02-24T00:57:11.352Z,52
2023-02-24T00:59:48.189Z,65
2023-02-24T01:02:25.083Z,54
2023-02-24T01:04:58.387Z,58
2023-02-24T01:07:39.043Z,56
2023-02-24T01:10:13.443Z,62
2023-02-24T01:12:50.396Z,56
2023-02-24T01:15:27.253Z,56
2023-02-24T01:18:00.407Z,59
2023-02-24T01:20:33.350Z,64
2023-02-24T01:23:10.186Z,54
2023-02-24T01:25:43.882Z,60
2023-02-24T01:28:20.286Z,56
2023-02-24T01:30:57.038Z,59
2023-02-24T01:33:34.137Z,56
2023-02-24T01:36:07.294Z,61
2023-02-24T01:38:40.893Z,56
2023-02-24T01:41:14.712Z,56
2023-02-24T01:43:51.929Z,56
2023-02-24T01:46:29.835Z,58
2023-02-24T01:49:03.147Z,63
2023-02-24T01:51:35.871Z,56
2023-02-24T01:54:12.625Z,53
2023-02-24T01:56:49.592Z,55
2023-02-24T01:59:27.061Z,58
2023-02-24T02:02:04.269Z,53
2023-02-24T02:04:36.975Z,60
2023-02-24T02:07:09.880Z,56
2023-02-24T02:09:46.657Z,56
2023-02-24T02:12:23.866Z,60
2023-02-24T02:14:56.908Z,59
2023-02-24T02:17:33.529Z,57
2023-02-24T02:20:07.941Z,56
2023-02-24T02:22:44.413Z,56
2023-02-24T02:25:17.870Z,59
2023-02-24T02:27:54.564Z,56
2023-02-24T02:30:31.607Z,56
2023-02-24T02:33:04.394Z,52
2023-02-24T02:35:37.551Z,60
2023-02-24T02:38:10.249Z,62
2023-02-24T02:40:43.432Z,59
2023-02-24T02:43:16.321Z,56
2023-02-24T02:45:52.982Z,57
2023-02-24T02:48:25.883Z,56
2023-02-24T02:51:03.148Z,56
2023-02-24T02:53:36.211Z,57
2023-02-24T02:56:13.032Z,52
2023-02-24T02:58:49.986Z,52
2023-02-24T03:01:23.199Z,57
2023-02-24T03:03:55.768Z,64
2023-02-24T03:06:32.959Z,53
2023-02-24T03:09:09.829Z,59
2023-02-24T03:11:46.662Z,55
2023-02-24T03:14:19.930Z,56
2023-02-24T03:16:59.503Z,58
2023-02-24T03:19:35.802Z,56
2023-02-24T03:22:09.692Z,52
2023-02-24T03:24:42.471Z,57
2023-02-24T03:27:16.786Z,59
2023-02-24T03:29:53.353Z,52
2023-02-24T03:32:29.822Z,55
2023-02-24T03:35:02.434Z,51
2023-02-24T03:37:39.733Z,56
2023-02-24T03:40:16.519Z,54
2023-02-24T03:42:52.681Z,60
2023-02-24T03:45:28.528Z,56
2023-02-24T03:48:01.272Z,60
2023-02-24T03:50:34.424Z,62
2023-02-24T03:53:11.097Z,56
2023-02-24T03:55:43.382Z,59
2023-02-24T03:58:16.341Z,57
2023-02-24T04:00:49.283Z,54
2023-02-24T04:03:26.069Z,60
2023-02-24T04:06:03.161Z,58
2023-02-24T04:08:36.247Z,52
2023-02-24T04:11:08.832Z,60
2023-02-24T04:13:45.781Z,56
2023-02-24T04:16:25.914Z,59
2023-02-24T04:19:00.275Z,64
2023-02-24T04:21:37.094Z,61
2023-02-24T04:24:10.154Z,61
2023-02-24T04:26:46.963Z,57
2023-02-24T04:29:20.068Z,59
2023-02-24T04:31:57.006Z,62
2023-02-24T04:34:29.643Z,59
2023-02-24T04:37:02.541Z,67
2023-02-24T04:39:35.460Z,59
2023-02-24T04:42:09.289Z,62
2023-02-24T04:44:43.159Z,61
2023-02-24T04:47:20.518Z,54
2023-02-24T04:49:58.524Z,56
2023-02-24T04:52:31.317Z,64
2023-02-24T04:55:08.227Z,69
2023-02-24T04:57:42.312Z,70
2023-02-24T05:00:15.309Z,75
2023-02-24T05:02:51.978Z,59
2023-02-24T05:05:28.905Z,54
2023-02-24T05:08:06.335Z,60
2023-02-24T05:10:39.098Z,56
2023-02-24T05:13:12.369Z,56
2023-02-24T05:15:49.049Z,59
2023-02-24T05:18:21.946Z,56
2023-02-24T05:20:53.670Z,61
2023-02-24T05:23:26.791Z,60
2023-02-24T05:26:03.631Z,58
2023-02-24T05:28:40.854Z,56
2023-02-24T05:31:17.887Z,58
2023-02-24T05:33:54.643Z,59
2023-02-24T05:36:31.753Z,55
2023-02-24T05:39:08.596Z,62
2023-02-24T05:41:41.869Z,71
2023-02-24T05:44:18.899Z,58
2023-02-24T05:46:55.688Z,60
2023-02-24T05:49:33.044Z,56
2023-02-24T05:52:09.748Z,60
2023-02-24T05:54:47.085Z,57
2023-02-24T05:57:23.869Z,47
2023-02-24T06:00:00.983Z,60
2023-02-24T06:02:38.034Z,64
2023-02-24T06:05:11.845Z,60
2023-02-24T06:07:48.706Z,59
2023-02-24T06:10:27.516Z,57
2023-02-24T06:13:03.811Z,60
2023-02-24T06:15:35.731Z,59
2023-02-24T06:18:13.873Z,59
2023-02-24T06:20:46.791Z,59
2023-02-24T06:23:23.599Z,60
2023-02-24T06:25:56.778Z,58
2023-02-24T06:28:30.911Z,60
2023-02-24T06:31:08.466Z,59
2023-02-24T06:33:46.918Z,63
2023-02-24T06:36:19.670Z,64
2023-02-24T06:38:55.427Z,63
2023-02-24T06:41:32.682Z,62
2023-02-24T06:44:06.628Z,56
2023-02-24T06:46:38.271Z,68
2023-02-24T06:49:14.520Z,72
2023-02-24T06:51:51.247Z,60
2023-02-24T06:54:28.452Z,68
2023-02-24T06:57:01.391Z,64
2023-02-24T06:59:39.416Z,68
2023-02-24T07:02:17.642Z,72
2023-02-24T07:04:50.343Z,69
2023-02-24T07:07:23.524Z,72
2023-02-24T07:09:56.784Z,70
2023-02-24T07:12:29.817Z,67
2023-02-24T07:15:03.143Z,77
2023-02-24T07:17:36.210Z,71
2023-02-24T07:20:09.045Z,73
2023-02-24T07:22:45.795Z,80
2023-02-24T07:25:25.736Z,68
2023-02-24T07:28:02.441Z,72
2023-02-24T07:30:35.126Z,79
2023-02-24T07:33:08.480Z,77
2023-02-24T07:35:45.291Z,72
2023-02-24T07:38:25.757Z,72
2023-02-24T07:41:02.814Z,62
2023-02-24T07:43:35.895Z,79
2023-02-24T07:46:12.939Z,72
2023-02-24T07:48:46.199Z,72
2023-02-24T07:51:25.860Z,68
2023-02-24T07:54:00.357Z,64
2023-02-24T07:56:38.874Z,68
2023-02-24T07:59:14.093Z,68
2023-02-24T08:01:55.358Z,66
2023-02-24T08:04:27.880Z,69
2023-02-24T08:07:04.057Z,68
2023-02-24T08:09:37.119Z,66
2023-02-24T08:12:14.295Z,83
2023-02-24T08:14:51.510Z,73
2023-02-24T08:17:28.188Z,68
2023-02-24T08:20:05.771Z,68
2023-02-24T08:22:42.180Z,64
2023-02-24T08:25:19.360Z,68
2023-02-24T08:28:05.050Z,67
2023-02-24T08:30:28.814Z,69
2023-02-24T08:33:05.533Z,64
2023-02-24T08:35:42.983Z,75
2023-02-24T08:38:26.014Z,62
2023-02-24T08:41:00.288Z,72
2023-02-24T08:43:33.598Z,67
2023-02-24T08:46:10.919Z,62
2023-02-24T08:48:45.111Z,68
2023-02-24T08:51:18.230Z,70
2023-02-24T08:53:55.208Z,74
2023-02-24T08:56:33.312Z,78
2023-02-24T08:59:09.858Z,68
2023-02-24T09:02:02.770Z,67
2023-02-24T09:04:29.111Z,69
2023-02-24T09:07:11.480Z,73
2023-02-24T09:09:39.338Z,72
2023-02-24T09:12:16.527Z,69
2023-02-24T09:14:49.906Z,71
2023-02-24T09:17:23.899Z,66
2023-02-24T09:19:56.868Z,63
2023-02-24T09:22:30.590Z,68
2023-02-24T09:25:06.712Z,58
2023-02-24T09:27:40.297Z,76
2023-02-24T09:30:21.545Z,66
2023-02-24T09:32:58.696Z,63
2023-02-24T09:35:30.809Z,61
2023-02-24T09:38:04.377Z,61
2023-02-24T09:40:40.721Z,60
2023-02-24T09:43:17.562Z,60
2023-02-24T09:45:51.270Z,60
2023-02-24T09:48:28.412Z,53
2023-02-24T09:51:06.148Z,54
2023-02-24T09:53:41.419Z,55
2023-02-24T09:56:16.310Z,61
2023-02-24T09:58:52.711Z,60
2023-02-24T10:01:33.810Z,54
2023-02-24T10:04:19.986Z,56
2023-02-24T10:06:45.229Z,51
2023-02-24T10:09:21.530Z,52
2023-02-24T10:11:54.588Z,54
2023-02-24T10:14:37.746Z,51
2023-02-24T10:17:00.982Z,50
2023-02-24T10:19:33.912Z,50
2023-02-24T10:22:10.536Z,51
2023-02-24T10:24:47.791Z,48
2023-02-24T10:27:24.402Z,47
2023-02-24T10:30:00.716Z,48
2023-02-24T10:32:38.062Z,45
2023-02-24T10:35:14.643Z,41
2023-02-24T10:37:48.932Z,46
2023-02-24T10:40:21.065Z,44
2023-02-24T10:42:58.464Z,35
2023-02-24T10:45:36.042Z,36
2023-02-24T10:48:11.990Z,36
2023-02-24T10:50:55.792Z,32
2023-02-24T10:53:19.537Z,38
2023-02-24T10:55:53.741Z,32
2023-02-24T10:58:27.230Z,32
2023-02-24T11:01:04.689Z,36
2023-02-24T11:03:41.246Z,28
2023-02-24T11:06:23.397Z,32
2023-02-24T11:09:01.047Z,24
2023-02-24T11:11:37.986Z,35
2023-02-24T11:14:15.207Z,26
2023-02-24T11:16:52.142Z,27
2023-02-24T11:19:29.071Z,32
2023-02-24T11:22:05.157Z,32
2023-02-24T11:24:46.015Z,22
2023-02-24T11:27:19.649Z,26
2023-02-24T11:29:56.681Z,37
2023-02-24T11:32:38.221Z,28
2023-02-24T11:35:16.285Z,24
2023-02-24T11:37:52.882Z,26
2023-02-24T11:40:30.421Z,18
2023-02-24T11:43:07.382Z,30
2023-02-24T11:45:45.319Z,24
2023-02-24T11:48:19.124Z,28
2023-02-24T11:50:56.298Z,26
2023-02-24T11:53:32.343Z,26
2023-02-24T11:56:09.790Z,19
2023-02-24T11:58:47.283Z,23
2023-02-24T12:01:24.893Z,22
2023-02-24T12:04:01.047Z,20
2023-02-24T12:06:33.680Z,26
2023-02-24T12:09:06.250Z,28
2023-02-24T12:11:46.554Z,12
2023-02-24T12:14:23.863Z,19
2023-02-24T12:17:01.617Z,30
2023-02-24T12:19:40.020Z,17
2023-02-24T12:22:12.656Z,21
2023-02-24T12:24:49.933Z,16
2023-02-24T12:27:27.498Z,20
2023-02-24T12:30:05.172Z,24
2023-02-24T12:32:41.813Z,16
2023-02-24T12:35:19.497Z,20
2023-02-24T12:37:56.389Z,21
2023-02-24T12:40:32.651Z,17
2023-02-24T12:43:09.619Z,18
2023-02-24T12:45:43.512Z,20
2023-02-24T12:48:23.800Z,16
2023-02-24T12:51:04.778Z,12
2023-02-24T12:53:40.840Z,22
2023-02-24T12:56:18.670Z,16
2023-02-24T12:58:56.611Z,16
2023-02-24T13:01:29.039Z,21
2023-02-24T13:04:02.598Z,24
2023-02-24T13:06:38.742Z,15
2023-02-24T13:09:16.496Z,18
2023-02-24T13:11:54.052Z,23
2023-02-24T13:14:26.772Z,31
2023-02-24T13:16:58.934Z,24
2023-02-24T13:19:32.973Z,20
2023-02-24T13:22:11.020Z,20
2023-02-24T13:24:53.605Z,20
2023-02-24T13:27:31.095Z,22
2023-02-24T13:30:12.657Z,21
2023-02-24T13:32:48.970Z,23
2023-02-24T13:35:22.518Z,18
2023-02-24T13:38:05.203Z,12
2023-02-24T13:40:43.427Z,23
2023-02-24T13:43:16.876Z,21
2023-02-24T13:45:54.203Z,24
2023-02-24T13:48:27.965Z,20
2023-02-24T13:51:04.155Z,18
2023-02-24T13:53:41.502Z,20
2023-02-24T13:56:14.089Z,29
2023-02-24T13:58:46.870Z,28
2023-02-24T14:01:25.294Z,20
2023-02-24T14:03:58.032Z,31
2023-02-24T14:06:34.830Z,18
2023-02-24T14:09:07.743Z,29
2023-02-24T14:11:45.422Z,28
2023-02-24T14:14:19.097Z,28
2023-02-24T14:16:52.580Z,24
2023-02-24T14:19:30.872Z,20
2023-02-24T14:22:13.175Z,27
2023-02-24T14:24:45.576Z,20
2023-02-24T14:27:23.520Z,31
2023-02-24T14:30:00.861Z,24
2023-02-24T14:32:35.447Z,17
2023-02-24T14:35:15.827Z,22
2023-02-24T14:37:53.627Z,18
2023-02-24T14:40:28.131Z,21
2023-02-24T14:43:04.923Z,16
2023-02-24T14:45:42.823Z,21
2023-02-24T14:48:23.382Z,16
2023-02-24T14:50:56.268Z,36
2023-02-24T14:53:28.885Z,26
2023-02-24T14:56:05.874Z,33
2023-02-24T14:58:39.519Z,24
2023-02-24T15:01:17.708Z,28
2023-02-24T15:03:54.040Z,24
2023-02-24T15:06:30.726Z,18
2023-02-24T15:09:05.395Z,28
2023-02-24T15:11:37.791Z,26
2023-02-24T15:14:14.701Z,23
2023-02-24T15:16:48.592Z,30
2023-02-24T15:19:25.552Z,30
2023-02-24T15:22:03.585Z,26
2023-02-24T15:24:36.674Z,32
2023-02-24T15:27:12.450Z,25
2023-02-24T15:29:49.702Z,16
2023-02-24T15:32:23.938Z,36
2023-02-24T15:35:00.787Z,22
2023-02-24T15:37:33.653Z,28
2023-02-24T15:40:06.388Z,24
2023-02-24T15:42:45.759Z,24
2023-02-24T15:45:22.544Z,31
2023-02-24T15:47:56.239Z,38
2023-02-24T15:50:31.750Z,34
2023-02-24T15:53:13.495Z,36
2023-02-24T15:55:49.715Z,36
2023-02-24T15:58:27.154Z,56
2023-02-24T16:01:03.733Z,52
2023-02-24T16:03:43.173Z,38
2023-02-24T16:06:19.981Z,34
2023-02-24T16:08:57.394Z,44
2023-02-24T16:11:30.920Z,41
2023-02-24T16:14:03.706Z,40
2023-02-24T16:16:41.302Z,44
2023-02-24T16:19:14.765Z,44
2023-02-24T16:21:51.321Z,46
2023-02-24T16:24:28.494Z,42
2023-02-24T16:27:01.291Z,48
2023-02-24T16:29:38.589Z,36
2023-02-24T16:32:12.235Z,47
2023-02-24T16:34:48.125Z,40
2023-02-24T16:37:21.988Z,56
2023-02-24T16:39:55.479Z,52
2023-02-24T16:42:28.295Z,48
2023-02-24T16:45:04.863Z,49
2023-02-24T16:47:41.928Z,52
2023-02-24T16:50:15.245Z,41
2023-02-24T16:52:53.689Z,42
2023-02-24T16:55:28.201Z,44
2023-02-24T16:58:04.831Z,52
2023-02-24T17:00:38.988Z,64
2023-02-24T17:03:16.111Z,71
2023-02-24T17:05:49.806Z,64
2023-02-24T17:08:30.033Z,70
2023-02-24T17:11:07.108Z,70
2023-02-24T17:13:41.874Z,78
2023-02-24T17:16:16.625Z,93
2023-02-24T17:18:53.042Z,92
2023-02-24T17:21:30.823Z,92
2023-02-24T17:24:04.192Z,90
2023-02-24T17:26:45.073Z,88
2023-02-24T17:29:18.816Z,101
2023-02-24T17:31:52.212Z,91
2023-02-24T17:34:30.421Z,102
2023-02-24T17:37:02.696Z,117
2023-02-24T17:39:40.104Z,110
2023-02-24T17:42:18.024Z,108
2023-02-24T17:44:51.680Z,115
2023-02-24T17:47:23.844Z,141
2023-02-24T17:50:01.672Z,130
2023-02-24T17:52:35.046Z,142
2023-02-24T17:55:11.586Z,122
2023-02-24T17:57:46.083Z,112
2023-02-24T18:00:19.858Z,107
2023-02-24T18:02:58.392Z,116
2023-02-24T18:05:34.915Z,135
2023-02-24T18:08:14.418Z,122
2023-02-24T18:10:49.519Z,116
2023-02-24T18:13:27.837Z,135
2023-02-24T18:15:59.643Z,130
2023-02-24T18:21:08.751Z,139
2023-02-24T18:23:42.958Z,126
2023-02-24T18:26:23.532Z,96
2023-02-24T18:28:57.850Z,115
2023-02-24T18:31:32.467Z,127
2023-02-24T18:34:06.556Z,100
2023-02-24T18:36:48.324Z,97
2023-02-24T18:39:25.546Z,92
2023-02-24T18:42:02.490Z,109
2023-02-24T18:44:39.434Z,101
2023-02-24T18:47:18.337Z,98
2023-02-24T18:49:56.452Z,119
2023-02-24T18:52:32.798Z,95
2023-02-24T18:55:08.916Z,111
2023-02-24T18:57:47.506Z,108
2023-02-24T19:00:21.803Z,101
2023-02-24T19:03:00.333Z,91
2023-02-24T19:05:39.164Z,98
2023-02-24T19:08:15.631Z,108
2023-02-24T19:10:49.633Z,109
2023-02-24T19:13:23.822Z,89
2023-02-24T19:15:56.629Z,109
2023-02-24T19:18:34.490Z,93
2023-02-24T19:21:11.572Z,94
2023-02-24T19:23:44.766Z,83
2023-02-24T19:26:17.430Z,76
2023-02-24T19:28:54.148Z,84
2023-02-24T19:31:30.241Z,83
2023-02-24T19:34:06.106Z,80
2023-02-24T19:36:43.595Z,78
2023-02-24T19:39:21.521Z,76
2023-02-24T19:41:54.075Z,76
2023-02-24T19:44:31.901Z,79
2023-02-24T19:47:09.245Z,76
2023-02-24T19:49:46.292Z,72
2023-02-24T19:52:22.050Z,73
2023-02-24T19:54:55.141Z,64
2023-02-24T19:57:28.996Z,76
2023-02-24T20:00:05.828Z,75
2023-02-24T20:02:39.449Z,66
2023-02-24T20:05:17.344Z,67
2023-02-24T20:07:56.157Z,68
2023-02-24T20:10:34.168Z,64
2023-02-24T20:13:16.415Z,72
2023-02-24T20:16:05.631Z,61
2023-02-24T20:18:43.068Z,70
2023-02-24T20:21:19.581Z,63
2023-02-24T20:23:56.781Z,62
2023-02-24T20:26:31.002Z,63
2023-02-24T20:29:10.235Z,67
2023-02-24T20:31:48.459Z,74
2023-02-24T20:34:26.404Z,72
2023-02-24T20:37:03.790Z,68
2023-02-24T20:39:49.827Z,61
2023-02-24T20:42:28.888Z,66
2023-02-24T20:45:05.982Z,67
2023-02-24T20:47:45.561Z,60
2023-02-24T20:50:26.562Z,65
2023-02-24T20:53:02.890Z,68
2023-02-24T20:55:44.582Z,70
2023-02-24T20:58:27.709Z,54
2023-02-24T21:01:05.594Z,61
2023-02-24T21:03:44.149Z,60
2023-02-24T21:06:17.884Z,61
2023-02-24T21:08:50.202Z,62
2023-02-24T21:11:28.870Z,54
2023-02-24T21:14:01.351Z,65
2023-02-24T21:16:39.597Z,98
2023-02-24T21:19:13.237Z,71
2023-02-24T21:21:50.915Z,68
2023-02-24T21:24:23.669Z,69
2023-02-24T21:27:02.398Z,65
2023-02-24T21:29:41.328Z,68
2023-02-24T21:32:22.129Z,49
2023-02-24T21:35:00.764Z,57
2023-02-24T21:37:41.681Z,68
2023-02-24T21:40:16.408Z,52
2023-02-24T21:42:51.450Z,50
2023-02-24T21:45:29.099Z,54
2023-02-24T21:48:06.235Z,62
2023-02-24T21:50:39.737Z,52
2023-02-24T21:53:13.243Z,58
2023-02-24T21:55:50.605Z,57
2023-02-24T21:58:28.368Z,55
2023-02-24T22:01:05.565Z,56
2023-02-24T22:03:39.267Z,53
2023-02-24T22:06:15.092Z,51
2023-02-24T22:08:51.179Z,56
2023-02-24T22:11:25.024Z,54
2023-02-24T22:14:01.506Z,52
2023-02-24T22:16:35.262Z,56
2023-02-24T22:19:09.488Z,53
2023-02-24T22:21:46.139Z,52
2023-02-24T22:24:19.122Z,52
2023-02-24T22:26:58.747Z,48
2023-02-24T22:29:32.449Z,53
2023-02-24T22:32:09.427Z,50
2023-02-24T22:34:46.987Z,56
2023-02-24T22:37:19.605Z,54
2023-02-24T22:39:57.477Z,48
2023-02-24T22:42:34.650Z,56
2023-02-24T22:45:11.838Z,52
2023-02-24T22:47:48.629Z,52
2023-02-24T22:50:27.171Z,46
2023-02-24T22:53:05.611Z,49
2023-02-24T22:55:46.517Z,40
2023-02-24T22:58:20.305Z,46
2023-02-24T23:00:58.186Z,53
2023-02-24T23:03:35.404Z,46
2023-02-24T23:06:09.293Z,45
2023-02-24T23:08:42.180Z,48
2023-02-24T23:11:19.257Z,43
2023-02-24T23:13:56.158Z,52
2023-02-24T23:16:33.798Z,50
2023-02-24T23:19:07.934Z,52
2023-02-24T23:21:46.077Z,41
2023-02-24T23:24:22.526Z,50
2023-02-24T23:26:59.180Z,46
2023-02-24T23:29:35.865Z,36
2023-02-24T23:32:12.376Z,50
2023-02-24T23:34:48.288Z,40
2023-02-24T23:37:25.352Z,36
2023-02-24T23:40:01.619Z,51
2023-02-24T23:42:34.659Z,39
2023-02-24T23:45:15.286Z,32
2023-02-24T23:47:53.658Z,44
2023-02-24T23:50:28.461Z,36
2023-02-24T23:53:05.482Z,36
2023-02-24T23:55:42.804Z,46
2023-02-24T23:58:16.724Z,36
